sensor_id;sensor_type;location;lat;lon;timestamp;temperature;humidity
43320;DHT22;28914;48.722;9.332;2023-11-19T00:01:30;11.60;86.20
43320;DHT22;28914;48.722;9.332;2023-11-19T00:06:50;11.60;86.10
43320;DHT22;28914;48.722;9.332;2023-11-19T00:12:09;11.60;86.10
43320;DHT22;28914;48.722;9.332;2023-11-19T00:17:28;11.70;86.30
43320;DHT22;28914;48.722;9.332;2023-11-19T00:22:48;11.70;87.10
43320;DHT22;28914;48.722;9.332;2023-11-19T00:28:10;11.70;86.60
43320;DHT22;28914;48.722;9.332;2023-11-19T00:33:29;11.70;86.50
43320;DHT22;28914;48.722;9.332;2023-11-19T00:38:48;11.60;86.60
43320;DHT22;28914;48.722;9.332;2023-11-19T00:44:07;11.70;86.80
43320;DHT22;28914;48.722;9.332;2023-11-19T00:49:27;11.70;86.90
43320;DHT22;28914;48.722;9.332;2023-11-19T00:54:46;11.70;87.10
43320;DHT22;28914;48.722;9.332;2023-11-19T01:00:06;11.70;87.10
43320;DHT22;28914;48.722;9.332;2023-11-19T01:05:37;11.80;87.30
43320;DHT22;28914;48.722;9.332;2023-11-19T01:10:56;11.80;87.50
43320;DHT22;28914;48.722;9.332;2023-11-19T01:16:15;11.80;87.50
43320;DHT22;28914;48.722;9.332;2023-11-19T01:21:34;11.80;87.60
43320;DHT22;28914;48.722;9.332;2023-11-19T01:26:54;11.90;87.70
43320;DHT22;28914;48.722;9.332;2023-11-19T01:32:13;11.90;87.70
43320;DHT22;28914;48.722;9.332;2023-11-19T01:37:32;12.00;87.80
43320;DHT22;28914;48.722;9.332;2023-11-19T01:42:53;12.00;87.80
43320;DHT22;28914;48.722;9.332;2023-11-19T01:48:14;12.10;87.90
43320;DHT22;28914;48.722;9.332;2023-11-19T01:53:35;12.20;88.00
43320;DHT22;28914;48.722;9.332;2023-11-19T01:58:56;12.20;87.90
43320;DHT22;28914;48.722;9.332;2023-11-19T02:04:16;12.20;87.90
43320;DHT22;28914;48.722;9.332;2023-11-19T02:09:36;12.30;87.90
43320;DHT22;28914;48.722;9.332;2023-11-19T02:14:56;12.30;87.90
43320;DHT22;28914;48.722;9.332;2023-11-19T02:20:18;12.40;88.00
43320;DHT22;28914;48.722;9.332;2023-11-19T02:25:40;12.40;87.90
43320;DHT22;28914;48.722;9.332;2023-11-19T02:30:59;12.40;88.00
43320;DHT22;28914;48.722;9.332;2023-11-19T02:36:18;12.40;88.00
43320;DHT22;28914;48.722;9.332;2023-11-19T02:41:37;12.40;88.00
43320;DHT22;28914;48.722;9.332;2023-11-19T02:46:58;12.50;88.10
43320;DHT22;28914;48.722;9.332;2023-11-19T02:52:18;12.50;88.00
43320;DHT22;28914;48.722;9.332;2023-11-19T02:57:41;12.50;88.10
43320;DHT22;28914;48.722;9.332;2023-11-19T03:03:05;12.60;89.00
43320;DHT22;28914;48.722;9.332;2023-11-19T03:08:36;12.60;88.10
43320;DHT22;28914;48.722;9.332;2023-11-19T03:13:56;12.60;88.10
43320;DHT22;28914;48.722;9.332;2023-11-19T03:19:15;12.70;88.30
43320;DHT22;28914;48.722;9.332;2023-11-19T03:24:34;12.70;88.30
43320;DHT22;28914;48.722;9.332;2023-11-19T03:29:54;12.70;88.30
43320;DHT22;28914;48.722;9.332;2023-11-19T03:35:13;12.70;88.30
43320;DHT22;28914;48.722;9.332;2023-11-19T03:40:33;12.80;88.50
43320;DHT22;28914;48.722;9.332;2023-11-19T03:45:52;12.80;88.60
43320;DHT22;28914;48.722;9.332;2023-11-19T03:51:11;12.80;88.60
43320;DHT22;28914;48.722;9.332;2023-11-19T03:56:34;12.80;88.70
43320;DHT22;28914;48.722;9.332;2023-11-19T04:01:53;12.80;88.80
43320;DHT22;28914;48.722;9.332;2023-11-19T04:07:15;12.90;89.00
43320;DHT22;28914;48.722;9.332;2023-11-19T04:12:35;12.90;89.00
43320;DHT22;28914;48.722;9.332;2023-11-19T04:17:54;12.90;89.10
43320;DHT22;28914;48.722;9.332;2023-11-19T04:23:13;13.00;89.20
43320;DHT22;28914;48.722;9.332;2023-11-19T04:28:33;13.00;89.50
43320;DHT22;28914;48.722;9.332;2023-11-19T04:33:52;13.00;89.50
43320;DHT22;28914;48.722;9.332;2023-11-19T04:39:13;13.00;89.80
43320;DHT22;28914;48.722;9.332;2023-11-19T04:44:34;13.00;89.70
43320;DHT22;28914;48.722;9.332;2023-11-19T04:49:54;13.00;89.70
43320;DHT22;28914;48.722;9.332;2023-11-19T04:55:13;13.10;89.70
43320;DHT22;28914;48.722;9.332;2023-11-19T05:00:33;13.10;89.70
43320;DHT22;28914;48.722;9.332;2023-11-19T05:05:52;13.10;89.70
43320;DHT22;28914;48.722;9.332;2023-11-19T05:11:12;13.20;89.70
43320;DHT22;28914;48.722;9.332;2023-11-19T05:16:39;13.20;89.70
43320;DHT22;28914;48.722;9.332;2023-11-19T05:21:59;13.20;89.70
43320;DHT22;28914;48.722;9.332;2023-11-19T05:27:18;13.30;89.70
43320;DHT22;28914;48.722;9.332;2023-11-19T05:32:37;13.30;89.60
43320;DHT22;28914;48.722;9.332;2023-11-19T05:37:56;13.30;89.60
43320;DHT22;28914;48.722;9.332;2023-11-19T05:43:15;13.30;89.60
43320;DHT22;28914;48.722;9.332;2023-11-19T05:48:35;13.30;89.50
43320;DHT22;28914;48.722;9.332;2023-11-19T05:53:55;13.40;89.70
43320;DHT22;28914;48.722;9.332;2023-11-19T05:59:15;13.40;89.80
43320;DHT22;28914;48.722;9.332;2023-11-19T06:04:36;13.40;90.00
43320;DHT22;28914;48.722;9.332;2023-11-19T06:09:56;13.50;90.20
43320;DHT22;28914;48.722;9.332;2023-11-19T06:15:15;13.60;90.50
43320;DHT22;28914;48.722;9.332;2023-11-19T06:20:35;13.70;90.90
43320;DHT22;28914;48.722;9.332;2023-11-19T06:25:54;13.90;91.00
43320;DHT22;28914;48.722;9.332;2023-11-19T06:31:13;14.00;91.00
43320;DHT22;28914;48.722;9.332;2023-11-19T06:36:35;14.10;90.90
43320;DHT22;28914;48.722;9.332;2023-11-19T06:41:54;14.30;90.90
43320;DHT22;28914;48.722;9.332;2023-11-19T06:47:13;14.30;90.80
43320;DHT22;28914;48.722;9.332;2023-11-19T06:52:32;14.40;90.60
43320;DHT22;28914;48.722;9.332;2023-11-19T06:57:51;14.50;90.60
43320;DHT22;28914;48.722;9.332;2023-11-19T07:03:11;14.50;90.90
43320;DHT22;28914;48.722;9.332;2023-11-19T07:08:30;14.60;90.40
43320;DHT22;28914;48.722;9.332;2023-11-19T07:13:49;14.70;90.40
43320;DHT22;28914;48.722;9.332;2023-11-19T07:19:09;14.70;90.40
43320;DHT22;28914;48.722;9.332;2023-11-19T07:24:29;14.80;90.30
43320;DHT22;28914;48.722;9.332;2023-11-19T07:29:48;14.90;90.30
43320;DHT22;28914;48.722;9.332;2023-11-19T07:35:08;14.90;90.40
43320;DHT22;28914;48.722;9.332;2023-11-19T07:40:27;14.90;90.30
43320;DHT22;28914;48.722;9.332;2023-11-19T07:45:46;15.00;90.30
43320;DHT22;28914;48.722;9.332;2023-11-19T07:51:06;15.00;90.20
43320;DHT22;28914;48.722;9.332;2023-11-19T07:56:25;15.10;90.20
43320;DHT22;28914;48.722;9.332;2023-11-19T08:01:44;15.10;90.10
43320;DHT22;28914;48.722;9.332;2023-11-19T08:07:03;15.10;90.10
43320;DHT22;28914;48.722;9.332;2023-11-19T08:12:22;15.20;90.10
43320;DHT22;28914;48.722;9.332;2023-11-19T08:17:42;15.30;90.10
43320;DHT22;28914;48.722;9.332;2023-11-19T08:23:04;15.30;90.00
43320;DHT22;28914;48.722;9.332;2023-11-19T08:28:23;15.40;90.10
43320;DHT22;28914;48.722;9.332;2023-11-19T08:33:42;15.50;90.10
43320;DHT22;28914;48.722;9.332;2023-11-19T08:39:02;15.60;90.00
43320;DHT22;28914;48.722;9.332;2023-11-19T08:44:22;15.70;90.00
43320;DHT22;28914;48.722;9.332;2023-11-19T08:49:41;15.90;90.50
43320;DHT22;28914;48.722;9.332;2023-11-19T08:55:00;16.20;90.10
43320;DHT22;28914;48.722;9.332;2023-11-19T09:00:20;16.40;89.80
43320;DHT22;28914;48.722;9.332;2023-11-19T09:05:40;16.60;88.80
43320;DHT22;28914;48.722;9.332;2023-11-19T09:10:59;16.70;88.20
43320;DHT22;28914;48.722;9.332;2023-11-19T09:16:18;16.80;88.80
43320;DHT22;28914;48.722;9.332;2023-11-19T09:21:37;17.00;88.80
43320;DHT22;28914;48.722;9.332;2023-11-19T09:26:58;17.30;88.90
43320;DHT22;28914;48.722;9.332;2023-11-19T09:32:17;17.60;88.00
43320;DHT22;28914;48.722;9.332;2023-11-19T09:37:36;17.80;86.10
43320;DHT22;28914;48.722;9.332;2023-11-19T09:42:56;17.90;85.50
43320;DHT22;28914;48.722;9.332;2023-11-19T09:48:17;18.10;85.50
43320;DHT22;28914;48.722;9.332;2023-11-19T09:53:37;18.20;86.20
43320;DHT22;28914;48.722;9.332;2023-11-19T09:58:57;18.70;87.60
43320;DHT22;28914;48.722;9.332;2023-11-19T10:04:16;19.20;85.60
43320;DHT22;28914;48.722;9.332;2023-11-19T10:09:36;19.90;87.30
43320;DHT22;28914;48.722;9.332;2023-11-19T10:14:58;21.20;87.20
43320;DHT22;28914;48.722;9.332;2023-11-19T10:20:17;23.00;85.70
43320;DHT22;28914;48.722;9.332;2023-11-19T10:25:37;24.70;80.90
43320;DHT22;28914;48.722;9.332;2023-11-19T10:30:56;25.40;75.40
43320;DHT22;28914;48.722;9.332;2023-11-19T10:36:15;25.70;72.00
43320;DHT22;28914;48.722;9.332;2023-11-19T10:41:36;25.40;68.40
43320;DHT22;28914;48.722;9.332;2023-11-19T10:46:55;24.80;68.10
43320;DHT22;28914;48.722;9.332;2023-11-19T10:52:18;23.90;67.90
43320;DHT22;28914;48.722;9.332;2023-11-19T10:57:43;23.20;69.20
43320;DHT22;28914;48.722;9.332;2023-11-19T11:03:11;22.90;70.30
43320;DHT22;28914;48.722;9.332;2023-11-19T11:08:30;22.70;70.30
43320;DHT22;28914;48.722;9.332;2023-11-19T11:13:50;22.50;70.30
43320;DHT22;28914;48.722;9.332;2023-11-19T11:19:11;22.30;71.00
43320;DHT22;28914;48.722;9.332;2023-11-19T11:30:55;22.10;70.00
43320;DHT22;28914;48.722;9.332;2023-11-19T11:36:22;21.80;69.80
43320;DHT22;28914;48.722;9.332;2023-11-19T11:41:41;21.40;70.10
43320;DHT22;28914;48.722;9.332;2023-11-19T11:47:01;21.10;69.10
43320;DHT22;28914;48.722;9.332;2023-11-19T11:52:20;20.80;70.30
43320;DHT22;28914;48.722;9.332;2023-11-19T11:57:39;20.60;70.30
43320;DHT22;28914;48.722;9.332;2023-11-19T12:03:00;20.40;70.60
43320;DHT22;28914;48.722;9.332;2023-11-19T12:08:25;20.30;70.60
43320;DHT22;28914;48.722;9.332;2023-11-19T12:13:53;20.30;70.20
43320;DHT22;28914;48.722;9.332;2023-11-19T12:19:15;20.40;70.60
43320;DHT22;28914;48.722;9.332;2023-11-19T12:24:35;20.40;70.70
43320;DHT22;28914;48.722;9.332;2023-11-19T12:29:55;20.40;70.50
43320;DHT22;28914;48.722;9.332;2023-11-19T12:35:16;20.30;69.70
43320;DHT22;28914;48.722;9.332;2023-11-19T12:40:35;20.10;70.20
43320;DHT22;28914;48.722;9.332;2023-11-19T12:45:55;20.00;69.80
43320;DHT22;28914;48.722;9.332;2023-11-19T12:51:14;19.90;69.80
43320;DHT22;28914;48.722;9.332;2023-11-19T12:56:33;19.90;69.10
43320;DHT22;28914;48.722;9.332;2023-11-19T13:01:59;19.80;70.00
43320;DHT22;28914;48.722;9.332;2023-11-19T13:07:21;19.80;70.00
43320;DHT22;28914;48.722;9.332;2023-11-19T13:12:41;19.80;69.50
43320;DHT22;28914;48.722;9.332;2023-11-19T13:18:01;19.70;69.00
43320;DHT22;28914;48.722;9.332;2023-11-19T13:23:21;19.60;69.50
43320;DHT22;28914;48.722;9.332;2023-11-19T13:28:40;19.50;69.00
43320;DHT22;28914;48.722;9.332;2023-11-19T13:33:59;19.30;67.70
43320;DHT22;28914;48.722;9.332;2023-11-19T13:39:18;19.20;68.10
43320;DHT22;28914;48.722;9.332;2023-11-19T13:44:41;19.20;68.70
43320;DHT22;28914;48.722;9.332;2023-11-19T13:50:01;19.10;67.70
43320;DHT22;28914;48.722;9.332;2023-11-19T13:55:20;19.00;67.10
43320;DHT22;28914;48.722;9.332;2023-11-19T14:00:41;18.80;67.10
43320;DHT22;28914;48.722;9.332;2023-11-19T14:06:02;18.70;68.30
43320;DHT22;28914;48.722;9.332;2023-11-19T14:11:21;18.60;68.10
43320;DHT22;28914;48.722;9.332;2023-11-19T14:16:40;18.40;68.30
43320;DHT22;28914;48.722;9.332;2023-11-19T14:21:59;18.30;68.00
43320;DHT22;28914;48.722;9.332;2023-11-19T14:27:19;18.10;68.60
43320;DHT22;28914;48.722;9.332;2023-11-19T14:32:39;18.00;68.50
43320;DHT22;28914;48.722;9.332;2023-11-19T14:37:59;18.10;69.20
43320;DHT22;28914;48.722;9.332;2023-11-19T14:43:18;18.10;68.50
43320;DHT22;28914;48.722;9.332;2023-11-19T14:48:37;18.10;68.60
43320;DHT22;28914;48.722;9.332;2023-11-19T14:53:57;18.00;68.90
43320;DHT22;28914;48.722;9.332;2023-11-19T14:59:16;17.90;68.60
43320;DHT22;28914;48.722;9.332;2023-11-19T15:04:36;17.80;69.10
43320;DHT22;28914;48.722;9.332;2023-11-19T15:09:56;17.60;69.10
43320;DHT22;28914;48.722;9.332;2023-11-19T15:15:15;17.50;69.40
43320;DHT22;28914;48.722;9.332;2023-11-19T15:20:35;17.30;69.60
43320;DHT22;28914;48.722;9.332;2023-11-19T15:25:54;17.00;69.80
43320;DHT22;28914;48.722;9.332;2023-11-19T15:31:14;16.90;70.00
43320;DHT22;28914;48.722;9.332;2023-11-19T15:36:34;16.70;70.40
43320;DHT22;28914;48.722;9.332;2023-11-19T15:41:55;16.60;70.80
43320;DHT22;28914;48.722;9.332;2023-11-19T15:47:15;16.50;71.20
43320;DHT22;28914;48.722;9.332;2023-11-19T15:52:35;16.30;71.40
43320;DHT22;28914;48.722;9.332;2023-11-19T15:57:54;16.10;71.70
43320;DHT22;28914;48.722;9.332;2023-11-19T16:03:14;15.90;72.20
43320;DHT22;28914;48.722;9.332;2023-11-19T16:08:33;15.60;72.60
43320;DHT22;28914;48.722;9.332;2023-11-19T16:13:52;15.30;72.90
43320;DHT22;28914;48.722;9.332;2023-11-19T16:19:12;15.10;73.20
43320;DHT22;28914;48.722;9.332;2023-11-19T16:24:31;14.80;73.60
43320;DHT22;28914;48.722;9.332;2023-11-19T16:29:50;14.50;74.00
43320;DHT22;28914;48.722;9.332;2023-11-19T16:35:09;14.30;75.20
43320;DHT22;28914;48.722;9.332;2023-11-19T16:40:29;14.10;74.80
43320;DHT22;28914;48.722;9.332;2023-11-19T16:45:48;13.80;75.20
43320;DHT22;28914;48.722;9.332;2023-11-19T16:51:13;13.60;75.60
43320;DHT22;28914;48.722;9.332;2023-11-19T16:56:33;13.40;76.20
43320;DHT22;28914;48.722;9.332;2023-11-19T17:01:52;13.20;76.30
43320;DHT22;28914;48.722;9.332;2023-11-19T17:07:12;13.10;76.70
43320;DHT22;28914;48.722;9.332;2023-11-19T17:12:31;12.90;77.00
43320;DHT22;28914;48.722;9.332;2023-11-19T17:17:50;12.70;77.40
43320;DHT22;28914;48.722;9.332;2023-11-19T17:23:09;12.60;77.80
43320;DHT22;28914;48.722;9.332;2023-11-19T17:28:28;12.40;78.30
43320;DHT22;28914;48.722;9.332;2023-11-19T17:33:47;12.30;78.40
43320;DHT22;28914;48.722;9.332;2023-11-19T17:39:07;12.20;78.80
43320;DHT22;28914;48.722;9.332;2023-11-19T17:44:26;12.00;79.00
43320;DHT22;28914;48.722;9.332;2023-11-19T17:49:45;12.00;79.20
43320;DHT22;28914;48.722;9.332;2023-11-19T17:55:06;11.90;79.70
43320;DHT22;28914;48.722;9.332;2023-11-19T18:00:27;11.80;80.10
43320;DHT22;28914;48.722;9.332;2023-11-19T18:05:46;11.70;80.50
43320;DHT22;28914;48.722;9.332;2023-11-19T18:11:07;11.60;80.60
43320;DHT22;28914;48.722;9.332;2023-11-19T18:16:29;11.60;80.60
43320;DHT22;28914;48.722;9.332;2023-11-19T18:21:48;11.50;81.10
43320;DHT22;28914;48.722;9.332;2023-11-19T18:27:08;11.50;82.10
43320;DHT22;28914;48.722;9.332;2023-11-19T18:32:27;11.50;82.40
43320;DHT22;28914;48.722;9.332;2023-11-19T18:37:46;11.50;82.60
43320;DHT22;28914;48.722;9.332;2023-11-19T18:43:05;11.50;83.10
43320;DHT22;28914;48.722;9.332;2023-11-19T18:48:24;11.50;83.20
43320;DHT22;28914;48.722;9.332;2023-11-19T18:53:44;11.60;83.30
43320;DHT22;28914;48.722;9.332;2023-11-19T18:59:03;11.60;83.50
43320;DHT22;28914;48.722;9.332;2023-11-19T19:04:26;11.60;83.60
43320;DHT22;28914;48.722;9.332;2023-11-19T19:09:47;11.70;83.60
43320;DHT22;28914;48.722;9.332;2023-11-19T19:15:12;11.70;83.60
43320;DHT22;28914;48.722;9.332;2023-11-19T19:20:31;11.70;83.80
43320;DHT22;28914;48.722;9.332;2023-11-19T19:25:50;11.80;83.90
43320;DHT22;28914;48.722;9.332;2023-11-19T19:31:10;11.80;84.00
43320;DHT22;28914;48.722;9.332;2023-11-19T19:36:36;11.90;84.20
43320;DHT22;28914;48.722;9.332;2023-11-19T19:41:55;12.00;84.30
43320;DHT22;28914;48.722;9.332;2023-11-19T19:47:14;12.10;84.20
43320;DHT22;28914;48.722;9.332;2023-11-19T19:52:33;12.20;84.10
43320;DHT22;28914;48.722;9.332;2023-11-19T19:57:54;12.20;84.10
43320;DHT22;28914;48.722;9.332;2023-11-19T20:03:13;12.30;84.30
43320;DHT22;28914;48.722;9.332;2023-11-19T20:08:33;12.30;85.30
43320;DHT22;28914;48.722;9.332;2023-11-19T20:13:52;12.50;85.10
43320;DHT22;28914;48.722;9.332;2023-11-19T20:19:14;12.60;85.50
43320;DHT22;28914;48.722;9.332;2023-11-19T20:24:33;12.70;85.60
43320;DHT22;28914;48.722;9.332;2023-11-19T20:29:53;12.90;85.80
43320;DHT22;28914;48.722;9.332;2023-11-19T20:35:12;13.10;85.80
43320;DHT22;28914;48.722;9.332;2023-11-19T20:40:31;13.20;85.60
43320;DHT22;28914;48.722;9.332;2023-11-19T20:45:50;13.30;85.60
43320;DHT22;28914;48.722;9.332;2023-11-19T20:51:10;13.40;85.60
43320;DHT22;28914;48.722;9.332;2023-11-19T20:56:29;13.50;85.60
43320;DHT22;28914;48.722;9.332;2023-11-19T21:01:48;13.50;85.60
43320;DHT22;28914;48.722;9.332;2023-11-19T21:07:07;13.60;86.10
43320;DHT22;28914;48.722;9.332;2023-11-19T21:12:27;13.60;85.80
43320;DHT22;28914;48.722;9.332;2023-11-19T21:17:46;13.60;85.80
43320;DHT22;28914;48.722;9.332;2023-11-19T21:23:06;13.60;85.80
43320;DHT22;28914;48.722;9.332;2023-11-19T21:28:27;13.70;85.70
43320;DHT22;28914;48.722;9.332;2023-11-19T21:33:46;13.70;85.80
43320;DHT22;28914;48.722;9.332;2023-11-19T21:39:06;13.70;85.90
43320;DHT22;28914;48.722;9.332;2023-11-19T21:44:27;13.70;85.90
43320;DHT22;28914;48.722;9.332;2023-11-19T21:49:46;13.70;86.00
43320;DHT22;28914;48.722;9.332;2023-11-19T21:55:05;13.70;85.90
43320;DHT22;28914;48.722;9.332;2023-11-19T22:00:25;13.80;85.40
43320;DHT22;28914;48.722;9.332;2023-11-19T22:05:44;13.80;84.80
43320;DHT22;28914;48.722;9.332;2023-11-19T22:11:04;13.90;84.30
43320;DHT22;28914;48.722;9.332;2023-11-19T22:16:23;13.90;83.80
43320;DHT22;28914;48.722;9.332;2023-11-19T22:21:42;13.80;83.30
43320;DHT22;28914;48.722;9.332;2023-11-19T22:27:01;13.70;83.10
43320;DHT22;28914;48.722;9.332;2023-11-19T22:32:21;13.50;83.00
43320;DHT22;28914;48.722;9.332;2023-11-19T22:37:40;13.30;83.00
43320;DHT22;28914;48.722;9.332;2023-11-19T22:43:00;13.10;83.00
43320;DHT22;28914;48.722;9.332;2023-11-19T22:48:19;12.90;83.20
43320;DHT22;28914;48.722;9.332;2023-11-19T22:53:38;12.60;83.10
43320;DHT22;28914;48.722;9.332;2023-11-19T22:58:57;12.40;83.10
43320;DHT22;28914;48.722;9.332;2023-11-19T23:04:16;12.20;83.60
43320;DHT22;28914;48.722;9.332;2023-11-19T23:09:36;12.00;83.70
43320;DHT22;28914;48.722;9.332;2023-11-19T23:14:57;11.90;83.70
43320;DHT22;28914;48.722;9.332;2023-11-19T23:20:23;11.70;83.80
43320;DHT22;28914;48.722;9.332;2023-11-19T23:25:42;11.60;84.10
43320;DHT22;28914;48.722;9.332;2023-11-19T23:31:02;11.40;84.10
43320;DHT22;28914;48.722;9.332;2023-11-19T23:36:21;11.30;84.50
43320;DHT22;28914;48.722;9.332;2023-11-19T23:41:40;11.10;84.50
43320;DHT22;28914;48.722;9.332;2023-11-19T23:46:59;11.00;84.80
43320;DHT22;28914;48.722;9.332;2023-11-19T23:52:18;10.80;85.00
43320;DHT22;28914;48.722;9.332;2023-11-19T23:57:38;10.80;85.30
